createdAt,value
2022-11-29T00:00:17.553Z,5.91
2022-11-29T00:05:18.881Z,5.82
2022-11-29T00:10:20.393Z,5.69
2022-11-29T00:15:21.692Z,5.75
2022-11-29T00:20:23.042Z,5.76
2022-11-29T00:25:24.427Z,5.70
2022-11-29T00:30:25.885Z,5.78
2022-11-29T00:35:27.316Z,5.78
2022-11-29T00:40:28.638Z,5.90
2022-11-29T00:45:29.971Z,5.85
2022-11-29T00:50:31.292Z,5.96
2022-11-29T00:55:32.587Z,5.87
2022-11-29T01:00:33.907Z,5.85
2022-11-29T01:05:35.279Z,5.84
2022-11-29T01:10:36.649Z,5.87
2022-11-29T01:15:38.352Z,5.89
2022-11-29T01:20:39.674Z,5.87
2022-11-29T01:25:40.999Z,5.98
2022-11-29T01:30:42.394Z,5.89
2022-11-29T01:35:50.964Z,5.80
2022-11-29T01:41:03.483Z,5.64
2022-11-29T01:46:04.885Z,5.61
2022-11-29T01:51:06.237Z,5.63
2022-11-29T01:56:08.057Z,5.67
2022-11-29T02:01:09.914Z,5.69
2022-11-29T02:06:11.306Z,5.68
2022-11-29T02:11:15.527Z,5.71
2022-11-29T02:16:22.114Z,5.64
2022-11-29T02:21:26.229Z,5.57
2022-11-29T02:26:46.365Z,5.58
2022-11-29T02:31:47.664Z,5.53
2022-11-29T02:36:48.965Z,5.52
2022-11-29T02:41:56.520Z,5.53
2022-11-29T02:46:58.077Z,5.48
2022-11-29T02:52:01.817Z,5.48
2022-11-29T02:57:27.917Z,5.51
2022-11-29T03:02:48.275Z,5.47
2022-11-29T03:08:05.452Z,5.53
2022-11-29T03:13:11.573Z,5.50
2022-11-29T03:18:45.353Z,5.47
2022-11-29T03:23:51.105Z,5.33
2022-11-29T03:29:07.155Z,5.30
2022-11-29T03:34:27.396Z,5.32
2022-11-29T03:39:44.050Z,5.40
2022-11-29T03:45:08.761Z,5.38
2022-11-29T03:50:10.651Z,5.43
2022-11-29T03:55:23.019Z,5.51
2022-11-29T04:00:24.618Z,5.63
2022-11-29T04:05:49.151Z,5.63
2022-11-29T04:11:09.354Z,5.65
2022-11-29T04:16:21.983Z,5.79
2022-11-29T04:21:26.405Z,5.65
2022-11-29T04:26:46.628Z,5.60
2022-11-29T04:32:00.044Z,5.79
2022-11-29T04:37:20.308Z,5.68
2022-11-29T04:42:30.815Z,5.71
2022-11-29T04:47:35.105Z,5.74
2022-11-29T04:52:42.872Z,5.79
2022-11-29T04:57:44.218Z,5.79
2022-11-29T05:02:59.248Z,5.83
2022-11-29T05:08:06.734Z,5.74
2022-11-29T05:13:25.206Z,5.83
2022-11-29T05:18:32.610Z,6.06
2022-11-29T05:23:34.025Z,5.94
2022-11-29T05:28:47.813Z,5.98
2022-11-29T05:34:07.755Z,6.04
2022-11-29T05:39:15.194Z,5.89
2022-11-29T05:44:24.564Z,6.06
2022-11-29T05:49:25.871Z,5.85
2022-11-29T05:54:29.635Z,5.88
2022-11-29T05:59:31.086Z,5.85
2022-11-29T06:04:32.408Z,5.83
2022-11-29T06:09:37.658Z,5.85
2022-11-29T06:14:55.335Z,5.88
2022-11-29T06:20:09.052Z,5.98
2022-11-29T06:25:23.536Z,6.01
2022-11-29T06:30:43.290Z,6.04
2022-11-29T06:35:51.810Z,6.12
2022-11-29T06:40:57.301Z,6.25
2022-11-29T06:46:29.046Z,6.18
2022-11-29T06:51:33.358Z,6.21
2022-11-29T06:56:40.720Z,6.27
2022-11-29T07:01:52.688Z,6.33
2022-11-29T07:06:54.217Z,6.34
2022-11-29T07:11:55.783Z,6.36
2022-11-29T07:17:06.306Z,6.41
2022-11-29T07:22:10.867Z,6.37
2022-11-29T07:27:20.196Z,6.41
2022-11-29T07:32:33.387Z,6.50
2022-11-29T07:37:40.738Z,6.52
2022-11-29T07:43:00.457Z,6.53
2022-11-29T07:48:02.161Z,6.62
2022-11-29T07:53:03.829Z,6.60
2022-11-29T07:58:05.233Z,6.68
2022-11-29T08:03:06.541Z,6.68
2022-11-29T08:08:07.917Z,6.74
2022-11-29T08:13:09.387Z,6.74
2022-11-29T08:18:10.753Z,6.81
2022-11-29T08:23:12.750Z,6.86
2022-11-29T08:28:15.864Z,6.95
2022-11-29T08:33:17.190Z,6.99
2022-11-29T08:38:18.504Z,7.01
2022-11-29T08:43:19.833Z,7.13
2022-11-29T08:48:21.198Z,7.25
2022-11-29T08:53:41.269Z,7.21
2022-11-29T08:58:42.642Z,7.33
2022-11-29T09:04:02.699Z,7.33
2022-11-29T09:09:04.957Z,7.37
2022-11-29T09:14:07.342Z,7.34
2022-11-29T09:19:08.717Z,7.42
2022-11-29T09:24:10.666Z,7.42
2022-11-29T09:29:12.081Z,7.43
2022-11-29T09:34:14.398Z,7.41
2022-11-29T09:39:15.705Z,7.39
2022-11-29T09:44:33.016Z,7.42
2022-11-29T09:49:34.338Z,7.53
2022-11-29T09:54:41.822Z,7.66
2022-11-29T09:59:45.609Z,7.72
2022-11-29T10:04:52.778Z,7.79
2022-11-29T10:10:01.654Z,7.84
2022-11-29T10:15:08.305Z,7.97
2022-11-29T10:20:15.529Z,7.97
2022-11-29T10:25:20.500Z,8.12
2022-11-29T10:30:22.048Z,8.05
2022-11-29T10:35:23.413Z,8.01
2022-11-29T10:40:29.905Z,7.95
2022-11-29T10:45:37.559Z,8.01
2022-11-29T10:50:40.966Z,7.98
2022-11-29T10:55:54.625Z,7.97
2022-11-29T11:00:57.487Z,7.87
2022-11-29T11:06:00.257Z,7.96
2022-11-29T11:11:02.630Z,7.98
2022-11-29T11:16:09.779Z,7.95
2022-11-29T11:21:12.556Z,8.01
2022-11-29T11:26:14.609Z,8.02
2022-11-29T11:31:16.953Z,8.04
2022-11-29T11:36:26.050Z,8.00
2022-11-29T11:41:48.957Z,7.92
2022-11-29T11:46:50.653Z,8.03
2022-11-29T11:51:52.148Z,8.04
2022-11-29T11:56:53.618Z,8.21
2022-11-29T12:01:55.000Z,8.34
2022-11-29T12:06:58.464Z,8.57
2022-11-29T12:12:10.645Z,8.62
2022-11-29T12:17:26.898Z,8.59
2022-11-29T12:22:32.822Z,8.50
2022-11-29T12:27:34.151Z,8.44
2022-11-29T12:33:01.832Z,8.44
2022-11-29T12:38:03.139Z,8.57
2022-11-29T12:43:28.366Z,8.65
2022-11-29T12:48:40.905Z,8.69
2022-11-29T12:54:01.160Z,8.44
2022-11-29T12:59:15.641Z,8.42
2022-11-29T13:04:39.489Z,8.58
2022-11-29T13:09:40.804Z,8.80
2022-11-29T13:15:01.233Z,9.04
2022-11-29T13:20:29.179Z,9.08
2022-11-29T13:25:33.778Z,8.97
2022-11-29T13:30:35.665Z,8.80
2022-11-29T13:35:53.530Z,8.66
2022-11-29T13:40:59.734Z,8.82
2022-11-29T13:46:11.876Z,8.61
2022-11-29T13:51:24.422Z,8.52
2022-11-29T13:56:25.905Z,8.37
2022-11-29T14:01:27.753Z,8.28
2022-11-29T14:06:36.399Z,8.24
2022-11-29T14:11:45.673Z,8.24
2022-11-29T14:16:49.102Z,8.18
2022-11-29T14:21:56.283Z,8.10
2022-11-29T14:27:06.780Z,8.04
2022-11-29T14:32:20.212Z,8.07
2022-11-29T14:37:27.613Z,8.13
2022-11-29T14:42:29.508Z,8.14
2022-11-29T14:47:35.390Z,8.07
2022-11-29T14:52:49.427Z,8.01
2022-11-29T14:57:51.259Z,7.89
2022-11-29T15:02:55.589Z,7.95
2022-11-29T15:08:16.135Z,7.80
2022-11-29T15:13:26.969Z,7.74
2022-11-29T15:18:37.406Z,7.77
2022-11-29T15:23:42.757Z,7.80
2022-11-29T15:28:44.487Z,7.71
2022-11-29T15:33:47.312Z,7.70
2022-11-29T15:38:49.953Z,7.72
2022-11-29T15:43:53.404Z,7.71
2022-11-29T15:48:55.679Z,7.72
2022-11-29T15:54:11.628Z,7.68
2022-11-29T15:59:17.631Z,7.72
2022-11-29T16:04:20.192Z,7.70
2022-11-29T16:09:29.954Z,7.71
2022-11-29T16:14:31.290Z,7.56
2022-11-29T16:19:34.721Z,7.62
2022-11-29T16:24:40.061Z,7.47
2022-11-29T16:29:45.005Z,7.48
2022-11-29T16:34:46.660Z,7.32
2022-11-29T16:39:49.499Z,7.20
2022-11-29T16:44:56.142Z,7.26
2022-11-29T16:50:13.660Z,7.04
2022-11-29T16:55:16.050Z,6.91
2022-11-29T17:00:22.585Z,6.92
2022-11-29T17:05:24.105Z,6.95
2022-11-29T17:10:25.745Z,6.94
2022-11-29T17:15:27.057Z,6.94
2022-11-29T17:20:28.376Z,6.81
2022-11-29T17:25:29.700Z,6.73
2022-11-29T17:30:31.762Z,6.79
2022-11-29T17:35:34.698Z,6.81
2022-11-29T17:40:37.870Z,6.69
2022-11-29T17:45:40.185Z,6.73
2022-11-29T17:50:41.925Z,6.80
2022-11-29T17:55:43.321Z,6.85
2022-11-29T18:00:44.631Z,6.76
2022-11-29T18:05:45.944Z,6.66
2022-11-29T18:10:47.259Z,6.63
2022-11-29T18:15:48.576Z,6.49
2022-11-29T18:20:49.917Z,6.32
2022-11-29T18:25:55.100Z,6.19
2022-11-29T18:30:56.696Z,6.19
2022-11-29T18:36:02.136Z,6.26
2022-11-29T18:41:21.945Z,6.35
2022-11-29T18:46:24.736Z,6.35
2022-11-29T18:51:26.148Z,6.32
2022-11-29T18:56:29.055Z,6.28
2022-11-29T19:01:31.838Z,6.27
2022-11-29T19:06:39.183Z,6.32
2022-11-29T19:11:41.266Z,6.40
2022-11-29T19:16:44.467Z,6.50
2022-11-29T19:21:46.058Z,6.54
2022-11-29T19:26:47.569Z,6.58
2022-11-29T19:31:50.340Z,6.56
2022-11-29T19:36:51.679Z,6.73
2022-11-29T19:41:53.039Z,6.69
2022-11-29T19:46:54.871Z,6.75
2022-11-29T19:51:56.198Z,6.65
2022-11-29T19:56:58.642Z,6.63
2022-11-29T20:01:59.994Z,6.59
2022-11-29T20:07:02.360Z,6.62
2022-11-29T20:12:03.703Z,6.63
2022-11-29T20:17:05.045Z,6.49
2022-11-29T20:22:06.364Z,6.42
2022-11-29T20:27:07.819Z,6.29
2022-11-29T20:32:09.296Z,6.17
2022-11-29T20:37:13.409Z,6.02
2022-11-29T20:42:23.799Z,5.99
2022-11-29T20:47:26.324Z,5.95
2022-11-29T20:52:42.683Z,5.97
2022-11-29T20:57:44.072Z,5.93
2022-11-29T21:02:45.389Z,5.89
2022-11-29T21:07:46.842Z,6.06
2022-11-29T21:12:48.352Z,6.04
2022-11-29T21:17:49.795Z,5.99
2022-11-29T21:22:51.105Z,5.95
2022-11-29T21:27:54.482Z,5.91
2022-11-29T21:32:55.941Z,5.82
2022-11-29T21:37:59.786Z,5.79
2022-11-29T21:43:01.120Z,5.85
2022-11-29T21:48:02.523Z,5.88
2022-11-29T21:53:03.854Z,5.87
2022-11-29T21:58:05.171Z,5.86
2022-11-29T22:03:06.549Z,5.95
2022-11-29T22:08:07.975Z,5.84
2022-11-29T22:13:09.302Z,5.84
2022-11-29T22:18:10.626Z,5.86
2022-11-29T22:23:11.968Z,5.93
2022-11-29T22:28:13.354Z,5.98
2022-11-29T22:33:14.674Z,5.94
2022-11-29T22:38:16.066Z,5.91
2022-11-29T22:43:17.410Z,5.88
2022-11-29T22:48:18.994Z,5.87
2022-11-29T22:53:20.309Z,5.92
2022-11-29T22:58:21.794Z,5.85
2022-11-29T23:03:23.305Z,5.92
2022-11-29T23:08:25.319Z,5.96
2022-11-29T23:13:26.856Z,5.97
2022-11-29T23:18:28.444Z,6.01
2022-11-29T23:23:30.228Z,6.05
2022-11-29T23:28:31.717Z,6.06
2022-11-29T23:33:33.038Z,6.04
2022-11-29T23:38:34.777Z,6.11
2022-11-29T23:43:37.303Z,6.12
2022-11-29T23:48:38.654Z,6.18
2022-11-29T23:53:40.498Z,6.28
2022-11-29T23:58:42.276Z,6.32
